UKV5125 ENNA-ENTC
Flight info
| Callsign | UKV5125 |
|---|---|
| Flight time | 0h 33m |
| Altitude | 26000 |
| Route | DONEX DCT DIBDI |
| Aircraft | E190/M-SDE3GILORVW/S |
Departure
| Time | 2026-05-04 17:30 |
|---|---|
| Airport | Lakselv Airport, Banak (ENNA) |
Arrival
| Time | 2026-05-04 18:03 |
|---|---|
| Airport | Tromsø Airport (ENTC) |
| Time | Latitude | Longitude | Altitude | Speed | Heading |
|---|---|---|---|---|---|
| 2026-05-04 17:11 | 70.06626 | 24.98033 | 27 ft | 0 kts | 163° |
| 2026-05-04 17:13 | 70.06627 | 24.98033 | 27 ft | 0 kts | 163° |
| 2026-05-04 17:23 | 70.06651 | 24.98011 | 27 ft | 3 kts | 163° |
| 2026-05-04 17:25 | 70.06625 | 24.98018 | 27 ft | 4 kts | 178° |
| 2026-05-04 17:26 | 70.06586 | 24.97859 | 27 ft | 7 kts | 254° |
| 2026-05-04 17:26 | 70.06490 | 24.97444 | 27 ft | 12 kts | 177° |
| 2026-05-04 17:27 | 70.06294 | 24.97492 | 29 ft | 15 kts | 175° |
| 2026-05-04 17:27 | 70.06024 | 24.97554 | 30 ft | 23 kts | 176° |
| 2026-05-04 17:28 | 70.05750 | 24.97564 | 32 ft | 13 kts | 182° |
| 2026-05-04 17:29 | 70.05795 | 24.97607 | 31 ft | 7 kts | 354° |
| 2026-05-04 17:29 | 70.08091 | 24.97078 | 431 ft | 183 kts | 355° |
| 2026-05-04 17:30 | 70.11946 | 24.93484 | 2403 ft | 226 kts | 298° |
| 2026-05-04 17:31 | 70.11981 | 24.84805 | 4340 ft | 210 kts | 265° |
| 2026-05-04 17:31 | 70.12019 | 24.71111 | 5907 ft | 240 kts | 269° |
| 2026-05-04 17:32 | 70.12021 | 24.60886 | 6732 ft | 260 kts | 268° |
| 2026-05-04 17:33 | 70.11956 | 24.44577 | 8288 ft | 271 kts | 267° |
| 2026-05-04 17:33 | 70.11918 | 24.39024 | 8866 ft | 273 kts | 267° |
| 2026-05-04 17:34 | 70.11724 | 24.21793 | 10039 ft | 298 kts | 266° |
| 2026-05-04 17:34 | 70.11626 | 24.15666 | 10484 ft | 302 kts | 266° |
| 2026-05-04 17:35 | 70.11296 | 23.97072 | 12025 ft | 307 kts | 264° |
| 2026-05-04 17:35 | 70.10941 | 23.84507 | 13031 ft | 311 kts | 264° |
| 2026-05-04 17:35 | 70.10761 | 23.78149 | 13510 ft | 313 kts | 264° |
| 2026-05-04 17:36 | 70.10580 | 23.71756 | 13964 ft | 315 kts | 264° |
| 2026-05-04 17:36 | 70.10401 | 23.65429 | 14424 ft | 316 kts | 263° |
| 2026-05-04 17:36 | 70.10217 | 23.58992 | 14881 ft | 317 kts | 263° |
| 2026-05-04 17:36 | 70.10028 | 23.52438 | 15319 ft | 319 kts | 263° |
| 2026-05-04 17:37 | 70.09841 | 23.46031 | 15749 ft | 320 kts | 263° |
| 2026-05-04 17:37 | 70.09648 | 23.39411 | 16199 ft | 322 kts | 263° |
| 2026-05-04 17:37 | 70.09455 | 23.32986 | 16644 ft | 323 kts | 263° |
| 2026-05-04 17:37 | 70.09254 | 23.26414 | 17081 ft | 325 kts | 263° |
| 2026-05-04 17:38 | 70.09052 | 23.19799 | 17539 ft | 326 kts | 263° |
| 2026-05-04 17:38 | 70.08846 | 23.13157 | 17964 ft | 328 kts | 263° |
| 2026-05-04 17:38 | 70.08635 | 23.06483 | 18344 ft | 329 kts | 263° |
| 2026-05-04 17:38 | 70.08422 | 22.99782 | 18669 ft | 332 kts | 262° |
| 2026-05-04 17:39 | 70.07982 | 22.86157 | 19302 ft | 337 kts | 262° |
| 2026-05-04 17:39 | 70.07758 | 22.79319 | 19705 ft | 337 kts | 262° |
| 2026-05-04 17:39 | 70.07524 | 22.72332 | 19691 ft | 350 kts | 262° |
| 2026-05-04 17:40 | 70.07278 | 22.65119 | 19702 ft | 361 kts | 262° |
| 2026-05-04 17:40 | 70.07027 | 22.57678 | 19552 ft | 371 kts | 262° |
| 2026-05-04 17:40 | 70.06770 | 22.50125 | 19578 ft | 375 kts | 262° |
| 2026-05-04 17:40 | 70.06505 | 22.42501 | 19564 ft | 377 kts | 262° |
| 2026-05-04 17:41 | 70.06235 | 22.34857 | 19561 ft | 378 kts | 262° |
| 2026-05-04 17:41 | 70.05966 | 22.27199 | 19560 ft | 378 kts | 262° |
| 2026-05-04 17:41 | 70.05698 | 22.19535 | 19556 ft | 378 kts | 262° |
| 2026-05-04 17:41 | 70.05420 | 22.11882 | 19553 ft | 379 kts | 262° |
| 2026-05-04 17:42 | 70.05138 | 22.04226 | 19563 ft | 377 kts | 262° |
| 2026-05-04 17:42 | 70.04852 | 21.96596 | 19551 ft | 377 kts | 261° |
| 2026-05-04 17:42 | 70.04567 | 21.88971 | 19542 ft | 376 kts | 262° |
| 2026-05-04 17:42 | 70.04281 | 21.81364 | 19528 ft | 375 kts | 261° |
| 2026-05-04 17:43 | 70.03992 | 21.73790 | 19559 ft | 374 kts | 261° |
| 2026-05-04 17:43 | 70.03697 | 21.66231 | 19557 ft | 373 kts | 261° |
| 2026-05-04 17:43 | 70.03400 | 21.58698 | 19557 ft | 373 kts | 261° |
| 2026-05-04 17:43 | 70.03104 | 21.51164 | 19567 ft | 372 kts | 261° |
| 2026-05-04 17:44 | 70.02797 | 21.43617 | 19560 ft | 376 kts | 261° |
| 2026-05-04 17:44 | 70.02489 | 21.36000 | 19561 ft | 378 kts | 261° |
| 2026-05-04 17:44 | 70.02188 | 21.28452 | 19554 ft | 379 kts | 261° |
| 2026-05-04 17:44 | 70.01881 | 21.20803 | 19554 ft | 379 kts | 261° |
| 2026-05-04 17:45 | 70.01558 | 21.13159 | 19553 ft | 379 kts | 261° |
| 2026-05-04 17:45 | 70.01225 | 21.05524 | 19552 ft | 380 kts | 261° |
| 2026-05-04 17:45 | 70.00896 | 20.97882 | 19553 ft | 379 kts | 261° |
| 2026-05-04 17:45 | 70.00571 | 20.90247 | 19552 ft | 378 kts | 261° |
| 2026-05-04 17:46 | 70.00248 | 20.82634 | 19550 ft | 377 kts | 261° |
| 2026-05-04 17:46 | 69.99921 | 20.75045 | 19556 ft | 376 kts | 261° |
| 2026-05-04 17:46 | 69.99584 | 20.67470 | 19550 ft | 376 kts | 261° |
| 2026-05-04 17:46 | 69.98988 | 20.60113 | 19571 ft | 371 kts | 247° |
| 2026-05-04 17:47 | 69.97972 | 20.53207 | 19552 ft | 370 kts | 244° |
| 2026-05-04 17:47 | 69.96929 | 20.46325 | 19542 ft | 370 kts | 245° |
| 2026-05-04 17:47 | 69.95903 | 20.39440 | 19544 ft | 370 kts | 245° |
| 2026-05-04 17:47 | 69.94891 | 20.32525 | 19545 ft | 373 kts | 245° |
| 2026-05-04 17:48 | 69.93878 | 20.25565 | 19541 ft | 375 kts | 245° |
| 2026-05-04 17:48 | 69.92871 | 20.18633 | 19541 ft | 376 kts | 245° |
| 2026-05-04 17:48 | 69.91849 | 20.11623 | 19539 ft | 375 kts | 245° |
| 2026-05-04 17:48 | 69.90853 | 20.04824 | 19357 ft | 357 kts | 244° |
| 2026-05-04 17:49 | 69.89483 | 19.98998 | 19059 ft | 344 kts | 223° |
| 2026-05-04 17:49 | 69.87618 | 19.94733 | 18675 ft | 343 kts | 215° |
| 2026-05-04 17:49 | 69.85674 | 19.90756 | 18184 ft | 341 kts | 214° |
| 2026-05-04 17:49 | 69.83743 | 19.86818 | 17669 ft | 338 kts | 215° |
| 2026-05-04 17:50 | 69.81836 | 19.82899 | 17245 ft | 334 kts | 215° |
| 2026-05-04 17:50 | 69.79956 | 19.78965 | 16786 ft | 333 kts | 216° |
| 2026-05-04 17:50 | 69.78098 | 19.74988 | 16347 ft | 332 kts | 216° |
| 2026-05-04 17:50 | 69.76234 | 19.71061 | 15888 ft | 330 kts | 215° |
| 2026-05-04 17:51 | 69.74375 | 19.67200 | 15451 ft | 329 kts | 214° |
| 2026-05-04 17:51 | 69.72518 | 19.63372 | 15024 ft | 327 kts | 214° |
| 2026-05-04 17:51 | 69.70668 | 19.59581 | 14590 ft | 325 kts | 214° |
| 2026-05-04 17:51 | 69.68839 | 19.55842 | 14140 ft | 320 kts | 214° |
| 2026-05-04 17:52 | 69.67052 | 19.52199 | 13732 ft | 310 kts | 214° |
| 2026-05-04 17:52 | 69.65310 | 19.48651 | 13331 ft | 303 kts | 214° |
| 2026-05-04 17:52 | 69.63610 | 19.45203 | 12878 ft | 296 kts | 214° |
| 2026-05-04 17:52 | 69.61978 | 19.41898 | 12557 ft | 286 kts | 214° |
| 2026-05-04 17:53 | 69.60360 | 19.38658 | 12195 ft | 281 kts | 213° |
| 2026-05-04 17:53 | 69.58713 | 19.35674 | 11807 ft | 281 kts | 211° |
| 2026-05-04 17:53 | 69.57041 | 19.32744 | 11438 ft | 281 kts | 211° |
| 2026-05-04 17:53 | 69.55375 | 19.29802 | 11075 ft | 283 kts | 211° |
| 2026-05-04 17:54 | 69.53705 | 19.26827 | 10691 ft | 282 kts | 211° |
| 2026-05-04 17:54 | 69.52043 | 19.23857 | 10296 ft | 282 kts | 211° |
| 2026-05-04 17:54 | 69.50391 | 19.20898 | 9948 ft | 279 kts | 211° |
| 2026-05-04 17:54 | 69.48749 | 19.17965 | 9577 ft | 278 kts | 211° |
| 2026-05-04 17:55 | 69.47117 | 19.15054 | 9174 ft | 273 kts | 211° |
| 2026-05-04 17:55 | 69.45522 | 19.12210 | 8717 ft | 271 kts | 211° |
| 2026-05-04 17:55 | 69.43956 | 19.09429 | 8249 ft | 258 kts | 211° |
| 2026-05-04 17:55 | 69.42470 | 19.06794 | 7794 ft | 247 kts | 211° |
| 2026-05-04 17:56 | 69.41045 | 19.04223 | 7357 ft | 239 kts | 216° |
| 2026-05-04 17:56 | 69.40044 | 19.00545 | 6936 ft | 239 kts | 251° |
| 2026-05-04 17:56 | 69.39951 | 18.95866 | 6528 ft | 241 kts | 281° |
| 2026-05-04 17:56 | 69.40456 | 18.91320 | 6127 ft | 242 kts | 290° |
| 2026-05-04 17:57 | 69.41004 | 18.86838 | 5693 ft | 237 kts | 288° |
| 2026-05-04 17:57 | 69.41451 | 18.82398 | 5242 ft | 233 kts | 285° |
| 2026-05-04 17:57 | 69.41937 | 18.78113 | 5106 ft | 216 kts | 298° |
| 2026-05-04 17:57 | 69.42942 | 18.74945 | 4804 ft | 219 kts | 334° |
| 2026-05-04 17:58 | 69.44301 | 18.74167 | 4932 ft | 189 kts | 12° |
| 2026-05-04 17:58 | 69.45408 | 18.75956 | 5133 ft | 187 kts | 38° |
| 2026-05-04 17:58 | 69.46635 | 18.77653 | 5140 ft | 204 kts | 15° |
| 2026-05-04 17:58 | 69.48051 | 18.78365 | 5176 ft | 209 kts | 11° |
| 2026-05-04 17:59 | 69.49473 | 18.79335 | 5108 ft | 214 kts | 17° |
| 2026-05-04 17:59 | 69.50917 | 18.80425 | 4662 ft | 215 kts | 14° |
| 2026-05-04 17:59 | 69.53729 | 18.82220 | 3831 ft | 195 kts | 14° |
| 2026-05-04 18:00 | 69.54998 | 18.83050 | 3462 ft | 179 kts | 14° |
| 2026-05-04 18:00 | 69.56173 | 18.83810 | 3136 ft | 167 kts | 14° |
| 2026-05-04 18:00 | 69.57284 | 18.84532 | 2833 ft | 161 kts | 15° |
| 2026-05-04 18:00 | 69.58354 | 18.85264 | 2547 ft | 153 kts | 15° |
| 2026-05-04 18:01 | 69.59349 | 18.85928 | 2298 ft | 144 kts | 15° |
| 2026-05-04 18:01 | 69.60327 | 18.86576 | 1994 ft | 141 kts | 15° |
| 2026-05-04 18:01 | 69.61258 | 18.87192 | 1711 ft | 135 kts | 15° |
| 2026-05-04 18:02 | 69.63046 | 18.88409 | 1156 ft | 130 kts | 15° |
| 2026-05-04 18:02 | 69.63912 | 18.88944 | 962 ft | 128 kts | 12° |
| 2026-05-04 18:02 | 69.64787 | 18.89442 | 797 ft | 126 kts | 14° |
| 2026-05-04 18:02 | 69.65671 | 18.90052 | 483 ft | 137 kts | 15° |
| 2026-05-04 18:03 | 69.66600 | 18.90722 | 258 ft | 138 kts | 15° |
| 2026-05-04 18:03 | 69.67527 | 18.91338 | 46 ft | 133 kts | 15° |
| 2026-05-04 18:03 | 69.68323 | 18.91883 | 29 ft | 96 kts | 12° |
| 2026-05-04 18:03 | 69.68816 | 18.92214 | 20 ft | 46 kts | 14° |
| 2026-05-04 18:04 | 69.69037 | 18.92359 | 22 ft | 28 kts | 13° |
| 2026-05-04 18:04 | 69.69232 | 18.92490 | 22 ft | 27 kts | 13° |
| 2026-05-04 18:04 | 69.69343 | 18.92584 | 22 ft | 3 kts | 221° |
| 2026-05-04 18:05 | 69.69293 | 18.92533 | 22 ft | 17 kts | 195° |
| 2026-05-04 18:05 | 69.69171 | 18.92447 | 22 ft | 19 kts | 193° |
| 2026-05-04 18:05 | 69.69028 | 18.92350 | 21 ft | 23 kts | 193° |
| 2026-05-04 18:05 | 69.68867 | 18.92246 | 21 ft | 22 kts | 192° |
| 2026-05-04 18:06 | 69.68779 | 18.91801 | 21 ft | 15 kts | 277° |
| 2026-05-04 18:06 | 69.68708 | 18.91640 | 18 ft | 15 kts | 193° |
| 2026-05-04 18:06 | 69.68601 | 18.91568 | 21 ft | 16 kts | 193° |
| 2026-05-04 18:07 | 69.68497 | 18.91499 | 25 ft | 16 kts | 193° |
| 2026-05-04 18:07 | 69.68382 | 18.91469 | 27 ft | 18 kts | 181° |
| 2026-05-04 18:07 | 69.68257 | 18.91448 | 27 ft | 18 kts | 192° |
| 2026-05-04 18:07 | 69.68139 | 18.91371 | 33 ft | 16 kts | 193° |
| 2026-05-04 18:08 | 69.68068 | 18.91315 | 33 ft | 6 kts | 215° |
| 2026-05-04 18:08 | 69.68069 | 18.91207 | 33 ft | 7 kts | 284° |
| 2026-05-04 18:08 | 69.68080 | 18.91065 | 33 ft | 7 kts | 283° |
| 2026-05-04 18:08 | 69.68086 | 18.90991 | 33 ft | 0 kts | 283° |